Time;durP1;ratioP1;P1;durP2;ratioP2;P2;SDS_P1;SDS_P2;PMS_P1;PMS_P2;Temp;Humidity;BMP_temperature;BMP_pressure;BME280_temperature;BME280_humidity;BME280_pressure;Samples;Min_cycle;Max_cycle;Signal;HPM_P1;HPM_P2
2022/11/06 00:00:12;;;;;;;;;;;;;;;11.61;74.66;98638.19;4480761;31;20268;-87
2022/11/06 00:02:37;;;;;;;;;;;;;;;11.98;73.32;98631.47;4475618;31;19994;-82
2022/11/06 00:07:47;;;;;;;;;;;;;;;11.83;74.24;98631.56;4484089;31;20361;-83
2022/11/06 00:10:15;;;;;;;;;;;;;;;11.52;74.85;98639.56;4473112;31;20621;-83
2022/11/06 00:12:40;;;;;;;;;;;;;;;11.46;75.30;98639.94;4467807;32;20051;-84
2022/11/06 00:15:06;;;;;;;;;;;;;;;11.66;75.15;98636.09;4478616;31;20334;-84
2022/11/06 00:17:31;;;;;;;;;;;;;;;11.39;76.86;98646.53;4489849;31;19990;-85
2022/11/06 00:19:56;;;;;;;;;;;;;;;11.71;74.67;98641.09;4497028;31;19972;-87
2022/11/06 00:22:22;;;;;;;;;;;;;;;11.49;75.72;98647.69;4474200;31;19979;-84
2022/11/06 00:24:50;;;;;;;;;;;;;;;11.71;74.71;98643.75;4494883;31;19987;-85
2022/11/06 00:27:15;;;;;;;;;;;;;;;11.82;73.92;98641.28;4493111;31;20678;-87
2022/11/06 00:29:40;;;;;;;;;;;;;;;11.60;75.10;98642.59;4471304;32;20031;-86
2022/11/06 00:32:06;;;;;;;;;;;;;;;11.84;73.86;98646.44;4467475;32;20391;-86
2022/11/06 00:34:31;;;;;;;;;;;;;;;11.28;75.94;98641.03;4455733;32;19999;-86
2022/11/06 00:36:57;;;;;;;;;;;;;;;11.35;76.84;98645.84;4447355;32;20036;-86
2022/11/06 00:39:22;;;;;;;;;;;;;;;11.70;74.57;98640.22;4461244;32;19995;-84
2022/11/06 00:41:47;;;;;;;;;;;;;;;11.38;76.75;98640.41;4455622;32;20268;-86
2022/11/06 00:44:12;;;;;;;;;;;;;;;11.19;77.07;98637.19;4465917;32;20040;-86
2022/11/06 00:46:38;;;;;;;;;;;;;;;11.95;73.93;98633.47;4456680;32;19985;-85
2022/11/06 00:49:03;;;;;;;;;;;;;;;11.50;75.66;98643.25;4461865;32;19998;-85
2022/11/06 00:51:29;;;;;;;;;;;;;;;11.46;76.02;98641.75;4460831;32;20346;-87
2022/11/06 00:53:56;;;;;;;;;;;;;;;11.75;73.93;98634.69;4454453;32;19993;-86
2022/11/06 00:56:21;;;;;;;;;;;;;;;11.55;76.10;98636.75;4464672;32;20007;-86
2022/11/06 00:58:47;;;;;;;;;;;;;;;11.34;76.82;98646.81;4458603;32;19983;-84
2022/11/06 01:01:13;;;;;;;;;;;;;;;11.58;75.79;98643.63;4457131;32;19998;-84
2022/11/06 01:03:39;;;;;;;;;;;;;;;11.51;75.77;98640.53;4464627;32;19992;-83
2022/11/06 01:06:08;;;;;;;;;;;;;;;11.58;75.51;98644.47;4454705;32;20026;-84
2022/11/06 01:08:33;;;;;;;;;;;;;;;11.55;74.78;98641.16;4463772;32;20338;-84
2022/11/06 01:11:04;;;;;;;;;;;;;;;11.20;77.23;98645.00;4459739;32;19973;-83
2022/11/06 01:13:30;;;;;;;;;;;;;;;11.18;78.45;98646.88;4458223;32;20036;-85
2022/11/06 01:15:55;;;;;;;;;;;;;;;11.44;76.93;98655.03;4464207;32;19987;-85
2022/11/06 01:18:20;;;;;;;;;;;;;;;11.82;74.01;98646.56;4454939;32;19976;-84
2022/11/06 01:20:45;;;;;;;;;;;;;;;11.91;74.11;98653.09;4463345;32;19980;-84
2022/11/06 01:23:11;;;;;;;;;;;;;;;12.06;73.45;98649.50;4460631;32;20027;-84
2022/11/06 01:25:36;;;;;;;;;;;;;;;11.89;74.18;98653.16;4456279;32;20323;-84
2022/11/06 01:28:01;;;;;;;;;;;;;;;11.48;75.09;98651.25;4465936;32;20032;-84
2022/11/06 01:30:27;;;;;;;;;;;;;;;11.70;74.23;98647.31;4475606;31;19977;-85
2022/11/06 01:32:55;;;;;;;;;;;;;;;11.38;76.87;98652.75;4493197;31;19998;-84
2022/11/06 01:35:20;;;;;;;;;;;;;;;11.32;76.81;98653.97;4491887;31;19995;-85
2022/11/06 01:37:45;;;;;;;;;;;;;;;11.87;74.90;98652.37;4488148;31;20002;-85
2022/11/06 01:40:11;;;;;;;;;;;;;;;11.59;76.35;98648.81;4496926;31;20066;-86
2022/11/06 01:42:36;;;;;;;;;;;;;;;11.86;74.83;98645.44;4488296;31;20000;-84
2022/11/06 01:45:19;;;;;;;;;;;;;;;11.97;74.11;98644.78;4492783;31;20015;-86
2022/11/06 01:47:44;;;;;;;;;;;;;;;12.05;73.42;98647.78;4481816;31;19963;-85
2022/11/06 01:50:09;;;;;;;;;;;;;;;12.22;72.83;98641.44;4470668;31;19983;-86
2022/11/06 01:52:35;;;;;;;;;;;;;;;11.71;74.17;98643.75;4478780;32;20016;-86
2022/11/06 01:55:12;;;;;;;;;;;;;;;12.25;72.60;98646.53;4476262;31;19998;-85
2022/11/06 01:57:37;;;;;;;;;;;;;;;12.13;73.20;98650.81;4487524;31;19994;-85
2022/11/06 02:00:03;;;;;;;;;;;;;;;11.62;75.89;98655.69;4481894;31;20031;-85
2022/11/06 02:02:29;;;;;;;;;;;;;;;11.74;75.56;98646.16;4487447;31;19986;-85
2022/11/06 02:04:54;;;;;;;;;;;;;;;11.93;74.65;98648.56;4492104;31;20003;-84
2022/11/06 02:07:19;;;;;;;;;;;;;;;11.97;74.24;98650.91;4492748;31;19983;-86
2022/11/06 02:09:44;;;;;;;;;;;;;;;12.05;73.95;98650.41;4473061;32;19996;-86
2022/11/06 02:12:28;;;;;;;;;;;;;;;12.05;74.21;98658.34;4495992;31;20275;-86
2022/11/06 02:14:56;;;;;;;;;;;;;;;12.26;72.76;98658.78;4489899;31;20081;-85
2022/11/06 02:17:37;;;;;;;;;;;;;;;12.32;72.62;98660.19;4488243;31;20020;-87
2022/11/06 02:20:08;;;;;;;;;;;;;;;11.93;74.55;98659.94;4497196;31;19980;-85
2022/11/06 02:22:48;;;;;;;;;;;;;;;11.75;74.21;98658.44;4473113;31;20346;-86
2022/11/06 02:25:23;;;;;;;;;;;;;;;12.01;74.05;98662.13;4490920;31;19980;-86
2022/11/06 02:27:50;;;;;;;;;;;;;;;12.14;73.54;98659.56;4497995;31;20041;-86
2022/11/06 02:30:16;;;;;;;;;;;;;;;11.78;74.70;98660.88;4460583;31;19997;-85
2022/11/06 02:32:41;;;;;;;;;;;;;;;11.60;76.63;98663.69;4496134;31;19991;-85
2022/11/06 02:35:18;;;;;;;;;;;;;;;11.87;74.80;98670.88;4485372;32;20005;-85
2022/11/06 02:37:43;;;;;;;;;;;;;;;11.24;78.01;98671.19;4474343;31;19983;-83
2022/11/06 02:40:09;;;;;;;;;;;;;;;12.16;74.01;98668.25;4472066;31;20007;-85
2022/11/06 02:42:36;;;;;;;;;;;;;;;11.99;74.07;98669.28;4472052;32;20058;-86
2022/11/06 02:45:01;;;;;;;;;;;;;;;12.27;73.04;98668.41;4478044;31;20052;-86
2022/11/06 02:47:27;;;;;;;;;;;;;;;12.53;72.02;98674.66;4461897;32;20005;-86
2022/11/06 02:50:03;;;;;;;;;;;;;;;12.26;73.16;98671.97;4471846;31;19975;-84
2022/11/06 02:52:49;;;;;;;;;;;;;;;12.48;72.31;98683.84;4475408;31;20048;-83
2022/11/06 02:55:35;;;;;;;;;;;;;;;12.55;71.67;98687.78;4476582;31;20007;-83
2022/11/06 02:58:02;;;;;;;;;;;;;;;12.75;70.83;98683.88;4483719;31;19979;-82
2022/11/06 03:00:30;;;;;;;;;;;;;;;12.23;73.42;98687.16;4483398;32;20430;-84
2022/11/06 03:03:00;;;;;;;;;;;;;;;12.28;72.35;98688.59;4465328;31;19995;-83
2022/11/06 03:05:26;;;;;;;;;;;;;;;12.15;73.35;98695.59;4476294;32;19992;-86
2022/11/06 03:08:08;;;;;;;;;;;;;;;12.24;73.31;98692.38;4497319;31;19983;-84
2022/11/06 03:10:39;;;;;;;;;;;;;;;12.02;74.36;98698.16;4473886;31;19987;-84
2022/11/06 03:13:04;;;;;;;;;;;;;;;12.20;73.24;98702.28;4479053;32;19992;-85
2022/11/06 03:15:33;;;;;;;;;;;;;;;12.03;73.51;98693.72;4496201;31;19979;-84
2022/11/06 03:18:17;;;;;;;;;;;;;;;12.00;74.78;98703.53;4472452;31;19990;-83
2022/11/06 03:20:57;;;;;;;;;;;;;;;12.39;72.74;98704.59;4496417;31;20586;-85
2022/11/06 03:23:36;;;;;;;;;;;;;;;11.98;74.61;98705.41;4467723;31;20035;-85
2022/11/06 03:26:07;;;;;;;;;;;;;;;12.14;73.82;98705.31;4486291;31;19992;-81
2022/11/06 03:28:33;;;;;;;;;;;;;;;12.14;74.22;98712.37;4484513;32;19983;-80
2022/11/06 03:31:00;;;;;;;;;;;;;;;12.53;72.27;98706.37;4465830;31;19997;-79
2022/11/06 03:33:29;;;;;;;;;;;;;;;12.55;71.88;98714.19;4476537;32;20048;-83
2022/11/06 03:35:56;;;;;;;;;;;;;;;12.42;73.03;98710.63;4484553;31;20039;-81
2022/11/06 03:38:22;;;;;;;;;;;;;;;12.48;72.06;98712.91;4473419;31;20081;-82
2022/11/06 03:40:49;;;;;;;;;;;;;;;12.71;71.34;98717.56;4481552;32;20035;-82
2022/11/06 03:43:15;;;;;;;;;;;;;;;12.71;71.43;98722.00;4479164;31;19980;-84
2022/11/06 03:45:41;;;;;;;;;;;;;;;12.52;72.24;98720.53;4475046;32;19983;-83
2022/11/06 03:48:08;;;;;;;;;;;;;;;12.33;72.97;98730.56;4482943;31;19963;-83
2022/11/06 03:50:37;;;;;;;;;;;;;;;12.09;74.23;98730.28;4484482;31;20028;-82
2022/11/06 03:53:07;;;;;;;;;;;;;;;12.42;72.37;98723.84;4478358;31;19984;-82
2022/11/06 03:55:37;;;;;;;;;;;;;;;12.31;73.08;98727.19;4500416;31;20006;-86
2022/11/06 03:58:07;;;;;;;;;;;;;;;12.52;72.21;98720.53;4472479;31;19968;-85
2022/11/06 04:00:35;;;;;;;;;;;;;;;12.54;71.77;98718.66;4482391;32;19979;-86
2022/11/06 04:03:03;;;;;;;;;;;;;;;12.45;72.53;98721.88;4484900;32;19984;-86
2022/11/06 04:05:30;;;;;;;;;;;;;;;12.50;72.21;98727.72;4481758;31;19994;-87
2022/11/06 04:16:16;;;;;;;;;;;;;;;12.33;72.85;98733.22;4428689;32;20058;-86
2022/11/06 04:18:41;;;;;;;;;;;;;;;12.48;71.95;98732.25;4423841;32;20336;-87
2022/11/06 04:21:21;;;;;;;;;;;;;;;12.68;71.25;98728.31;4422629;32;20027;-86
2022/11/06 04:27:08;;;;;;;;;;;;;;;12.28;73.46;98732.62;4423194;32;20568;-86
2022/11/06 04:29:39;;;;;;;;;;;;;;;12.49;72.61;98733.09;4430079;32;19973;-86
2022/11/06 04:32:21;;;;;;;;;;;;;;;11.77;75.34;98741.00;4428565;32;20000;-86
2022/11/06 04:34:55;;;;;;;;;;;;;;;11.77;75.49;98733.94;4421858;32;20007;-85
2022/11/06 04:37:29;;;;;;;;;;;;;;;11.87;74.42;98734.22;4432138;32;20001;-86
2022/11/06 04:40:00;;;;;;;;;;;;;;;12.17;73.72;98741.25;4427692;32;19992;-85
2022/11/06 04:42:52;;;;;;;;;;;;;;;11.92;75.23;98740.09;4424648;32;20033;-84
2022/11/06 04:45:20;;;;;;;;;;;;;;;11.73;75.82;98739.50;4419453;32;20158;-83
2022/11/06 04:47:45;;;;;;;;;;;;;;;12.23;72.81;98742.63;4425132;32;20439;-84
2022/11/06 04:50:11;;;;;;;;;;;;;;;12.06;73.73;98735.78;4449136;32;19991;-83
2022/11/06 04:52:36;;;;;;;;;;;;;;;12.33;73.00;98743.78;4470897;31;19979;-82
2022/11/06 04:55:01;;;;;;;;;;;;;;;12.37;72.44;98742.63;4473115;31;20011;-82
2022/11/06 04:57:27;;;;;;;;;;;;;;;12.22;73.52;98740.97;4480967;32;19984;-83
2022/11/06 04:59:52;;;;;;;;;;;;;;;11.85;74.89;98743.19;4492689;31;20012;-84
2022/11/06 05:02:18;;;;;;;;;;;;;;;12.23;73.07;98743.50;4476721;32;19995;-83
2022/11/06 05:04:44;;;;;;;;;;;;;;;12.37;72.35;98734.72;4497854;31;19991;-84
2022/11/06 05:07:11;;;;;;;;;;;;;;;12.04;74.33;98738.50;4476402;32;19998;-84
2022/11/06 05:09:44;;;;;;;;;;;;;;;11.77;75.52;98736.56;4470251;32;20024;-83
2022/11/06 05:12:15;;;;;;;;;;;;;;;11.81;75.20;98742.50;4494653;31;19963;-84
2022/11/06 05:14:41;;;;;;;;;;;;;;;12.07;74.11;98740.09;4473452;32;20018;-83
2022/11/06 05:17:06;;;;;;;;;;;;;;;11.81;74.51;98746.00;4497212;31;19996;-83
2022/11/06 05:19:31;;;;;;;;;;;;;;;12.05;73.90;98749.91;4490353;31;19971;-82
2022/11/06 05:24:40;;;;;;;;;;;;;;;12.09;73.97;98756.69;4484928;31;20896;-83
2022/11/06 05:27:06;;;;;;;;;;;;;;;12.10;74.12;98753.13;4473237;31;19987;-83
2022/11/06 05:29:31;;;;;;;;;;;;;;;12.04;74.30;98757.00;4494254;31;20040;-82
2022/11/06 05:31:56;;;;;;;;;;;;;;;12.24;73.20;98752.28;4492983;31;20001;-82
2022/11/06 05:34:21;;;;;;;;;;;;;;;12.47;72.37;98764.03;4486683;31;20072;-83
2022/11/06 05:36:49;;;;;;;;;;;;;;;12.37;72.59;98755.84;4478354;31;20019;-82
2022/11/06 05:39:15;;;;;;;;;;;;;;;12.36;72.62;98764.72;4497133;31;20023;-82
2022/11/06 05:41:40;;;;;;;;;;;;;;;12.51;71.44;98765.53;4490038;31;20028;-82
2022/11/06 05:44:05;;;;;;;;;;;;;;;12.53;71.56;98769.78;4476023;32;20011;-82
2022/11/06 05:46:31;;;;;;;;;;;;;;;12.33;72.13;98773.69;4495263;31;19987;-83
2022/11/06 05:48:56;;;;;;;;;;;;;;;12.37;72.07;98777.81;4473144;31;20325;-85
2022/11/06 05:51:21;;;;;;;;;;;;;;;12.13;73.36;98781.97;4491558;31;19956;-85
2022/11/06 05:53:47;;;;;;;;;;;;;;;12.49;71.61;98780.66;4485391;31;19998;-85
2022/11/06 05:56:12;;;;;;;;;;;;;;;12.28;72.41;98782.81;4475982;32;19976;-86
2022/11/06 05:58:37;;;;;;;;;;;;;;;12.17;73.14;98786.16;4498868;31;19980;-85
2022/11/06 06:01:03;;;;;;;;;;;;;;;12.24;72.59;98789.25;4489140;31;20024;-85
2022/11/06 06:03:28;;;;;;;;;;;;;;;11.88;73.66;98795.78;4483357;32;20264;-86
2022/11/06 06:05:53;;;;;;;;;;;;;;;12.06;73.25;98792.06;4493454;31;20007;-83
2022/11/06 06:08:18;;;;;;;;;;;;;;;11.69;75.11;98803.97;4492109;31;20011;-84
2022/11/06 06:10:44;;;;;;;;;;;;;;;11.90;74.09;98810.63;4498129;31;19963;-83
2022/11/06 06:13:09;;;;;;;;;;;;;;;12.01;73.55;98807.31;4489791;31;19999;-84
2022/11/06 06:15:39;;;;;;;;;;;;;;;11.92;73.56;98810.53;4493832;31;20021;-82
2022/11/06 06:18:04;;;;;;;;;;;;;;;12.04;73.59;98815.06;4493223;31;20027;-82
2022/11/06 06:20:30;;;;;;;;;;;;;;;11.66;75.05;98810.25;4471579;32;19986;-83
2022/11/06 06:22:58;;;;;;;;;;;;;;;12.20;73.23;98807.91;4499355;31;20034;-83
2022/11/06 06:25:23;;;;;;;;;;;;;;;12.36;72.19;98820.19;4491261;31;19988;-83
2022/11/06 06:27:49;;;;;;;;;;;;;;;12.21;72.37;98822.00;4480714;31;20314;-86
2022/11/06 06:30:14;;;;;;;;;;;;;;;12.39;72.21;98820.00;4496511;31;20027;-85
2022/11/06 06:32:40;;;;;;;;;;;;;;;12.30;72.27;98823.19;4489433;31;20535;-85
2022/11/06 06:35:05;;;;;;;;;;;;;;;12.40;72.04;98827.00;4499443;31;20010;-85
2022/11/06 06:37:30;;;;;;;;;;;;;;;12.08;72.50;98832.44;4491717;31;19989;-84
2022/11/06 06:39:55;;;;;;;;;;;;;;;12.45;71.62;98832.84;4494505;31;20300;-84
2022/11/06 06:42:21;;;;;;;;;;;;;;;12.54;71.32;98828.78;4493986;31;20054;-84
2022/11/06 06:44:46;;;;;;;;;;;;;;;12.42;71.42;98840.09;4474893;31;19991;-85
2022/11/06 06:47:15;;;;;;;;;;;;;;;12.50;71.14;98840.50;4496003;31;19984;-83
2022/11/06 06:49:41;;;;;;;;;;;;;;;12.51;71.18;98847.47;4492373;31;19968;-85
2022/11/06 06:52:06;;;;;;;;;;;;;;;12.59;71.03;98843.41;4491592;31;20025;-85
2022/11/06 06:54:32;;;;;;;;;;;;;;;12.53;71.30;98848.22;4496777;31;20020;-84
2022/11/06 06:56:57;;;;;;;;;;;;;;;12.54;71.20;98852.56;4499268;31;19967;-87
2022/11/06 06:59:22;;;;;;;;;;;;;;;12.70;70.32;98855.94;4489872;31;19963;-88
2022/11/06 07:01:50;;;;;;;;;;;;;;;13.01;69.44;98859.31;4503914;31;19989;-85
2022/11/06 07:04:15;;;;;;;;;;;;;;;12.84;69.95;98857.72;4504099;31;20019;-84
2022/11/06 07:06:40;;;;;;;;;;;;;;;12.56;70.52;98858.59;4503982;31;19967;-84
2022/11/06 07:09:06;;;;;;;;;;;;;;;12.06;73.73;98865.16;4503530;31;20101;-84
2022/11/06 07:11:31;;;;;;;;;;;;;;;12.59;71.36;98858.41;4503864;31;19993;-84
2022/11/06 07:13:56;;;;;;;;;;;;;;;12.40;71.91;98866.63;4503896;31;19967;-83
2022/11/06 07:16:22;;;;;;;;;;;;;;;12.76;70.56;98854.72;4503873;31;20349;-83
2022/11/06 07:18:47;;;;;;;;;;;;;;;12.85;70.24;98858.59;4503953;31;20002;-84
2022/11/06 07:21:12;;;;;;;;;;;;;;;12.89;70.02;98860.09;4503847;31;19968;-83
2022/11/06 07:23:38;;;;;;;;;;;;;;;12.50;71.94;98861.62;4503934;31;19997;-84
2022/11/06 07:26:04;;;;;;;;;;;;;;;12.82;70.70;98864.06;4503729;31;20291;-85
2022/11/06 07:28:29;;;;;;;;;;;;;;;12.89;70.68;98868.88;4503937;31;20008;-85
2022/11/06 07:30:59;;;;;;;;;;;;;;;12.72;70.96;98869.91;4503593;31;20029;-85
2022/11/06 07:33:24;;;;;;;;;;;;;;;12.82;70.76;98866.69;4503700;31;19988;-85
2022/11/06 07:35:49;;;;;;;;;;;;;;;13.13;69.33;98871.78;4503958;31;19982;-85
2022/11/06 07:38:14;;;;;;;;;;;;;;;13.25;68.54;98870.12;4489018;31;20051;-83
2022/11/06 07:40:40;;;;;;;;;;;;;;;13.02;69.27;98868.97;4503514;31;19971;-86
2022/11/06 07:43:05;;;;;;;;;;;;;;;13.01;69.58;98869.88;4503413;31;20015;-85
2022/11/06 07:45:31;;;;;;;;;;;;;;;12.85;70.26;98877.94;4488977;31;19967;-85
2022/11/06 07:47:59;;;;;;;;;;;;;;;12.97;69.28;98882.44;4503383;31;19982;-85
2022/11/06 07:50:25;;;;;;;;;;;;;;;12.95;69.23;98872.94;4503291;31;20255;-85
2022/11/06 07:52:50;;;;;;;;;;;;;;;12.46;71.11;98886.50;4503438;31;19983;-86
2022/11/06 07:55:15;;;;;;;;;;;;;;;12.81;70.57;98881.72;4503409;31;19971;-85
2022/11/06 07:57:40;;;;;;;;;;;;;;;12.93;69.92;98882.75;4488943;31;20097;-85
2022/11/06 08:00:06;;;;;;;;;;;;;;;12.77;70.43;98882.88;4503340;31;19993;-84
2022/11/06 08:02:31;;;;;;;;;;;;;;;12.83;70.33;98879.84;4488944;31;19999;-83
2022/11/06 08:04:57;;;;;;;;;;;;;;;12.95;70.13;98876.41;4488948;31;19979;-85
2022/11/06 08:07:22;;;;;;;;;;;;;;;12.89;70.39;98886.53;4503367;31;19976;-85
2022/11/06 08:09:47;;;;;;;;;;;;;;;12.91;70.15;98882.00;4503278;31;20335;-85
2022/11/06 08:12:13;;;;;;;;;;;;;;;13.04;69.53;98885.56;4503268;31;19971;-86
2022/11/06 08:14:38;;;;;;;;;;;;;;;12.82;69.87;98883.41;4503124;31;19982;-85
2022/11/06 08:17:04;;;;;;;;;;;;;;;13.10;69.71;98887.81;4503129;31;19983;-85
2022/11/06 08:19:29;;;;;;;;;;;;;;;13.28;68.94;98882.31;4503092;31;19972;-85
2022/11/06 08:21:54;;;;;;;;;;;;;;;12.96;70.59;98887.81;4501884;31;20007;-83
2022/11/06 08:24:20;;;;;;;;;;;;;;;12.93;70.20;98888.87;4488592;31;19967;-87
2022/11/06 08:26:45;;;;;;;;;;;;;;;12.77;70.90;98902.22;4503037;31;20044;-86
2022/11/06 08:29:10;;;;;;;;;;;;;;;12.25;72.97;98899.25;4503063;31;19986;-87
2022/11/06 08:31:35;;;;;;;;;;;;;;;12.78;71.20;98900.41;4487935;31;19983;-85
2022/11/06 08:34:01;;;;;;;;;;;;;;;12.68;71.61;98897.47;4502817;31;19968;-87
2022/11/06 08:36:26;;;;;;;;;;;;;;;12.53;71.52;98901.06;4502965;31;19967;-87
2022/11/06 08:38:51;;;;;;;;;;;;;;;12.73;71.63;98900.72;4502966;31;19980;-86
2022/11/06 08:41:17;;;;;;;;;;;;;;;12.84;71.06;98893.91;4502964;31;19975;-85
2022/11/06 08:43:42;;;;;;;;;;;;;;;13.10;70.14;98895.75;4474800;32;20009;-86
2022/11/06 08:46:08;;;;;;;;;;;;;;;13.05;70.37;98894.34;4477372;31;19983;-85
2022/11/06 08:48:33;;;;;;;;;;;;;;;12.39;73.08;98899.25;4502915;31;20285;-83
2022/11/06 08:50:59;;;;;;;;;;;;;;;13.04;70.49;98892.62;4502980;31;20280;-83
2022/11/06 08:53:24;;;;;;;;;;;;;;;13.14;69.98;98894.63;4488549;31;20006;-84
2022/11/06 08:55:49;;;;;;;;;;;;;;;13.14;69.70;98893.78;4502805;31;20012;-89
2022/11/06 08:58:14;;;;;;;;;;;;;;;12.93;70.48;98895.97;4502949;31;20373;-85
2022/11/06 09:00:40;;;;;;;;;;;;;;;12.85;70.36;98895.59;4502841;31;19994;-89
2022/11/06 09:03:06;;;;;;;;;;;;;;;12.87;70.03;98896.34;4488563;31;20002;-89
2022/11/06 09:05:32;;;;;;;;;;;;;;;13.15;69.21;98893.69;4488477;31;19962;-85
2022/11/06 09:07:57;;;;;;;;;;;;;;;13.03;69.36;98898.88;4502742;31;20323;-87
2022/11/06 09:10:25;;;;;;;;;;;;;;;13.27;68.60;98893.81;4502696;31;19983;-86
2022/11/06 09:12:51;;;;;;;;;;;;;;;13.40;68.32;98896.56;4502697;31;19944;-87
2022/11/06 09:15:16;;;;;;;;;;;;;;;13.56;68.06;98887.53;4488212;31;20009;-86
2022/11/06 09:17:43;;;;;;;;;;;;;;;13.08;69.56;98892.38;4488095;31;19984;-86
2022/11/06 09:20:08;;;;;;;;;;;;;;;13.38;68.72;98886.09;4502697;31;20275;-87
2022/11/06 09:22:33;;;;;;;;;;;;;;;13.81;67.64;98879.78;4502563;31;20023;-86
2022/11/06 09:24:59;;;;;;;;;;;;;;;13.53;68.44;98871.00;4479365;31;20068;-87
2022/11/06 09:27:24;;;;;;;;;;;;;;;13.84;67.44;98880.44;4489883;31;20319;-85
2022/11/06 09:29:49;;;;;;;;;;;;;;;14.04;67.17;98884.41;4471802;31;20005;-84
2022/11/06 09:32:15;;;;;;;;;;;;;;;14.28;66.64;98876.59;4489170;31;20015;-84
2022/11/06 09:34:40;;;;;;;;;;;;;;;14.18;66.75;98880.81;4479358;32;20018;-85
2022/11/06 09:37:05;;;;;;;;;;;;;;;13.80;67.42;98886.03;4480804;31;20011;-86
2022/11/06 09:39:30;;;;;;;;;;;;;;;13.95;66.78;98875.25;4476573;32;20000;-85
2022/11/06 09:42:16;;;;;;;;;;;;;;;14.41;65.61;98878.38;4499004;31;19983;-86
2022/11/06 09:44:51;;;;;;;;;;;;;;;14.05;66.63;98877.31;4485320;32;20339;-86
2022/11/06 09:47:19;;;;;;;;;;;;;;;14.18;65.51;98872.87;4484669;31;19983;-87
2022/11/06 09:49:51;;;;;;;;;;;;;;;14.46;64.27;98879.75;4498202;31;19983;-85
2022/11/06 09:52:19;;;;;;;;;;;;;;;14.39;64.37;98875.84;4469563;32;19982;-85
2022/11/06 09:54:55;;;;;;;;;;;;;;;14.49;64.35;98876.91;4471736;32;20033;-85
2022/11/06 09:57:36;;;;;;;;;;;;;;;14.54;63.65;98873.94;4468763;31;20003;-85
2022/11/06 10:00:03;;;;;;;;;;;;;;;14.48;63.81;98874.34;4488141;31;19991;-87
2022/11/06 10:02:31;;;;;;;;;;;;;;;14.25;65.80;98870.63;4497777;31;19984;-86
2022/11/06 10:05:04;;;;;;;;;;;;;;;14.44;65.27;98876.38;4493655;31;20043;-85
2022/11/06 10:07:31;;;;;;;;;;;;;;;14.84;64.57;98870.12;4475252;32;20006;-85
2022/11/06 10:09:56;;;;;;;;;;;;;;;15.08;63.98;98867.50;4497983;31;19976;-86
2022/11/06 10:12:25;;;;;;;;;;;;;;;14.48;63.47;98872.53;4474812;31;20053;-83
2022/11/06 10:14:58;;;;;;;;;;;;;;;14.96;61.40;98866.59;4480606;32;19980;-86
2022/11/06 10:17:26;;;;;;;;;;;;;;;15.04;61.00;98858.94;4482784;31;20932;-86
2022/11/06 10:19:55;;;;;;;;;;;;;;;15.25;61.66;98859.19;4493791;31;19979;-86
2022/11/06 10:22:38;;;;;;;;;;;;;;;15.33;61.14;98861.28;4474913;31;19971;-87
2022/11/06 10:25:03;;;;;;;;;;;;;;;15.40;61.03;98854.56;4492279;31;19972;-87
2022/11/06 10:27:39;;;;;;;;;;;;;;;15.56;59.71;98853.44;4495908;31;20281;-86
2022/11/06 10:30:07;;;;;;;;;;;;;;;15.40;59.79;98851.91;4473503;31;20010;-87
2022/11/06 10:32:51;;;;;;;;;;;;;;;15.28;59.87;98858.97;4481016;32;19968;-85
2022/11/06 10:35:17;;;;;;;;;;;;;;;15.12;60.43;98861.03;4495631;31;19983;-89
2022/11/06 10:38:02;;;;;;;;;;;;;;;15.27;59.05;98857.25;4474336;32;19994;-90
2022/11/06 10:40:28;;;;;;;;;;;;;;;14.92;60.53;98859.81;4484470;32;20031;-89
2022/11/06 10:43:00;;;;;;;;;;;;;;;14.81;61.08;98857.91;4481525;32;19996;-89
2022/11/06 10:45:25;;;;;;;;;;;;;;;14.98;60.92;98854.06;4463632;31;21413;-90
2022/11/06 10:47:52;;;;;;;;;;;;;;;15.03;60.10;98856.41;4479759;31;20015;-89
2022/11/06 10:50:18;;;;;;;;;;;;;;;14.98;60.69;98854.06;4478245;32;19988;-88
2022/11/06 10:52:43;;;;;;;;;;;;;;;14.89;61.65;98855.59;4477940;31;19992;-88
2022/11/06 10:55:29;;;;;;;;;;;;;;;15.07;60.41;98848.09;4490823;31;20023;-88
2022/11/06 10:58:01;;;;;;;;;;;;;;;14.57;61.96;98841.94;4486106;31;19992;-89
2022/11/06 11:00:27;;;;;;;;;;;;;;;14.76;61.17;98846.81;4481801;32;20039;-90
2022/11/06 11:02:53;;;;;;;;;;;;;;;15.09;60.65;98838.22;4492175;31;20021;-89
2022/11/06 11:05:19;;;;;;;;;;;;;;;15.29;60.81;98834.09;4491507;31;20047;-90
2022/11/06 11:07:45;;;;;;;;;;;;;;;15.34;59.27;98829.31;4482659;31;19995;-88
2022/11/06 11:10:22;;;;;;;;;;;;;;;15.10;60.27;98829.31;4472171;31;20675;-89
2022/11/06 11:12:51;;;;;;;;;;;;;;;15.32;60.26;98825.94;4494524;31;19989;-88
2022/11/06 11:15:17;;;;;;;;;;;;;;;15.29;60.44;98833.28;4485932;31;19968;-88
2022/11/06 11:17:42;;;;;;;;;;;;;;;15.13;59.75;98820.28;4478019;31;19995;-88
2022/11/06 11:20:26;;;;;;;;;;;;;;;14.98;60.34;98830.19;4477798;32;20009;-88
2022/11/06 11:23:05;;;;;;;;;;;;;;;15.17;60.58;98829.72;4487099;31;19988;-90
2022/11/06 11:25:30;;;;;;;;;;;;;;;14.98;60.97;98821.41;4477067;31;19990;-89
2022/11/06 11:27:55;;;;;;;;;;;;;;;15.21;59.91;98823.22;4491350;31;20412;-87
2022/11/06 11:30:22;;;;;;;;;;;;;;;15.32;59.65;98825.09;4483183;32;20371;-89
2022/11/06 11:32:47;;;;;;;;;;;;;;;15.23;60.96;98825.75;4471240;32;19964;-90
2022/11/06 11:35:15;;;;;;;;;;;;;;;15.36;60.97;98821.25;4495529;31;20025;-89
2022/11/06 11:37:40;;;;;;;;;;;;;;;15.12;61.59;98827.41;4473237;32;20033;-90
2022/11/06 11:40:18;;;;;;;;;;;;;;;15.34;60.81;98823.19;4483147;31;20036;-89
2022/11/06 11:42:43;;;;;;;;;;;;;;;15.43;60.74;98826.94;4491880;31;20393;-90
2022/11/06 11:45:08;;;;;;;;;;;;;;;15.36;61.15;98823.06;4477407;32;20026;-89
2022/11/06 11:47:34;;;;;;;;;;;;;;;15.49;60.76;98815.88;4479713;31;20354;-90
2022/11/06 11:50:15;;;;;;;;;;;;;;;15.48;60.31;98812.37;4477286;31;19991;-91
2022/11/06 11:52:40;;;;;;;;;;;;;;;15.66;60.07;98814.59;4491820;31;19971;-90
2022/11/06 11:55:15;;;;;;;;;;;;;;;15.47;60.24;98815.12;4477643;32;20330;-90
2022/11/06 11:57:42;;;;;;;;;;;;;;;15.47;60.61;98808.03;4483749;32;20267;-89
2022/11/06 12:00:13;;;;;;;;;;;;;;;15.34;61.01;98808.09;4471125;31;19987;-89
2022/11/06 12:02:42;;;;;;;;;;;;;;;15.76;59.92;98809.47;4475102;31;20459;-88
2022/11/06 12:05:09;;;;;;;;;;;;;;;15.42;60.90;98815.47;4465004;32;20429;-88
2022/11/06 12:07:36;;;;;;;;;;;;;;;15.77;60.00;98817.34;4481912;31;19971;-89
2022/11/06 12:10:02;;;;;;;;;;;;;;;15.82;59.01;98811.66;4485773;31;19988;-88
2022/11/06 12:12:32;;;;;;;;;;;;;;;15.36;58.86;98810.63;4468126;32;20376;-88
2022/11/06 12:15:06;;;;;;;;;;;;;;;15.80;57.88;98806.50;4474334;31;19993;-89
2022/11/06 12:17:32;;;;;;;;;;;;;;;15.89;58.40;98805.78;4475552;32;20006;-88
2022/11/06 12:19:58;;;;;;;;;;;;;;;16.12;57.68;98811.97;4476236;31;20045;-88
2022/11/06 12:22:34;;;;;;;;;;;;;;;16.07;57.03;98805.31;4482654;32;20264;-94
2022/11/06 12:24:59;;;;;;;;;;;;;;;16.02;56.93;98808.34;4477687;31;20341;-85
2022/11/06 12:27:26;;;;;;;;;;;;;;;16.07;56.43;98811.50;4480202;31;20011;-91
2022/11/06 12:29:52;;;;;;;;;;;;;;;16.24;57.56;98809.34;4456472;31;19995;-86
2022/11/06 12:32:19;;;;;;;;;;;;;;;16.17;57.57;98806.34;4488031;31;20320;-87
2022/11/06 12:34:45;;;;;;;;;;;;;;;16.38;57.28;98810.91;4471514;32;19959;-88
2022/11/06 12:37:18;;;;;;;;;;;;;;;16.49;56.91;98805.63;4483456;31;20091;-89
2022/11/06 12:39:45;;;;;;;;;;;;;;;16.66;54.92;98799.81;4470190;31;19983;-89
2022/11/06 12:42:10;;;;;;;;;;;;;;;16.80;54.63;98803.19;4462268;31;19995;-89
2022/11/06 12:44:36;;;;;;;;;;;;;;;16.93;54.60;98809.25;4488442;31;20050;-89
2022/11/06 12:47:10;;;;;;;;;;;;;;;16.90;54.87;98804.16;4487495;31;20353;-86
2022/11/06 12:49:38;;;;;;;;;;;;;;;16.93;54.86;98808.41;4468837;31;20389;-88
2022/11/06 12:52:08;;;;;;;;;;;;;;;16.89;54.42;98805.97;4494027;31;20679;-89
2022/11/06 12:54:52;;;;;;;;;;;;;;;16.86;54.54;98813.34;4473946;31;19979;-89
2022/11/06 12:57:36;;;;;;;;;;;;;;;16.42;55.65;98815.91;4485484;31;19980;-88
2022/11/06 13:00:04;;;;;;;;;;;;;;;16.47;55.66;98819.03;4486004;31;19998;-88
2022/11/06 13:02:34;;;;;;;;;;;;;;;16.50;55.82;98812.63;4484027;31;19986;-90
2022/11/06 13:05:15;;;;;;;;;;;;;;;16.27;56.53;98814.44;4471927;31;19975;-90
2022/11/06 13:07:50;;;;;;;;;;;;;;;16.43;55.96;98809.59;4471224;32;20005;-88